createdAt,value
2018-03-16T00:00:48.009Z,81.21
2018-03-16T00:01:48.107Z,81.40
2018-03-16T00:02:48.195Z,80.83
2018-03-16T00:03:48.287Z,81.21
2018-03-16T00:04:48.382Z,80.88
2018-03-16T00:05:48.471Z,80.74
2018-03-16T00:06:48.569Z,81.26
2018-03-16T00:07:48.662Z,82.07
2018-03-16T00:08:48.749Z,81.78
2018-03-16T00:09:48.843Z,81.97
2018-03-16T00:10:48.934Z,81.68
2018-03-16T00:11:49.027Z,82.16
2018-03-16T00:12:49.120Z,82.07
2018-03-16T00:13:49.210Z,81.97
2018-03-16T00:14:49.300Z,81.97
2018-03-16T00:15:49.392Z,81.87
2018-03-16T00:16:49.483Z,81.97
2018-03-16T00:17:49.575Z,81.97
2018-03-16T00:18:50.330Z,81.78
2018-03-16T00:19:49.803Z,81.78
2018-03-16T00:20:49.893Z,81.87
2018-03-16T00:21:49.986Z,81.87
2018-03-16T00:22:50.075Z,82.35
2018-03-16T00:23:50.175Z,81.74
2018-03-16T00:24:50.262Z,81.87
2018-03-16T00:25:50.353Z,81.68
2018-03-16T00:26:50.437Z,81.97
2018-03-16T00:27:50.527Z,82.16
2018-03-16T00:28:50.622Z,82.07
2018-03-16T00:29:50.712Z,81.87
2018-03-16T00:30:50.805Z,82.26
2018-03-16T00:31:50.898Z,82.35
2018-03-16T00:32:50.986Z,82.92
2018-03-16T00:33:51.079Z,82.16
2018-03-16T00:34:51.168Z,82.45
2018-03-16T00:35:51.260Z,82.40
2018-03-16T00:36:51.356Z,82.59
2018-03-16T00:37:51.453Z,82.69
2018-03-16T00:38:51.544Z,82.69
2018-03-16T00:39:51.635Z,82.73
2018-03-16T00:40:51.726Z,82.64
2018-03-16T00:41:51.823Z,82.92
2018-03-16T00:42:51.917Z,82.82
2018-03-16T00:43:52.017Z,83.07
2018-03-16T00:44:52.112Z,82.88
2018-03-16T00:45:52.207Z,83.54
2018-03-16T00:46:52.307Z,82.88
2018-03-16T00:47:52.404Z,83.64
2018-03-16T00:48:52.495Z,83.92
2018-03-16T00:49:52.584Z,84.21
2018-03-16T00:50:52.674Z,84.01
2018-03-16T00:51:52.769Z,83.92
2018-03-16T00:52:52.861Z,84.49
2018-03-16T00:53:52.958Z,84.01
2018-03-16T00:54:53.051Z,83.54
2018-03-16T00:55:53.193Z,83.64
2018-03-16T00:56:53.237Z,84.30
2018-03-16T00:57:53.318Z,84.01
2018-03-16T00:58:53.413Z,84.40
2018-03-16T00:59:53.505Z,84.30
2018-03-16T01:00:53.597Z,84.30
2018-03-16T01:01:53.690Z,84.87
2018-03-16T01:02:53.791Z,84.49
2018-03-16T01:03:53.871Z,84.68
2018-03-16T01:04:53.969Z,85.06
2018-03-16T01:05:54.063Z,84.64
2018-03-16T01:06:54.160Z,84.92
2018-03-16T01:07:54.252Z,85.49
2018-03-16T01:08:54.343Z,85.21
2018-03-16T01:09:54.436Z,85.40
2018-03-16T01:10:54.528Z,85.78
2018-03-16T01:11:54.625Z,85.59
2018-03-16T01:12:54.718Z,85.97
2018-03-16T01:13:54.808Z,85.82
2018-03-16T01:14:54.905Z,85.35
2018-03-16T01:15:54.997Z,85.35
2018-03-16T01:16:55.088Z,84.55
2018-03-16T01:17:55.177Z,84.55
2018-03-16T01:18:55.266Z,84.49
2018-03-16T01:19:55.357Z,85.53
2018-03-16T01:20:55.447Z,85.59
2018-03-16T01:21:55.538Z,85.21
2018-03-16T01:22:55.626Z,85.30
2018-03-16T01:23:55.728Z,85.30
2018-03-16T01:24:55.817Z,85.06
2018-03-16T01:25:55.905Z,85.02
2018-03-16T01:26:55.999Z,84.97
2018-03-16T01:27:56.091Z,85.35
2018-03-16T01:28:56.187Z,85.44
2018-03-16T01:29:56.276Z,85.25
2018-03-16T01:30:56.371Z,85.49
2018-03-16T01:31:56.480Z,85.06
2018-03-16T01:32:56.561Z,85.35
2018-03-16T01:33:56.646Z,85.16
2018-03-16T01:34:56.737Z,85.16
2018-03-16T01:35:56.830Z,85.16
2018-03-16T01:36:56.926Z,85.35
2018-03-16T01:37:57.019Z,85.16
2018-03-16T01:38:57.109Z,84.64
2018-03-16T01:39:57.197Z,84.26
2018-03-16T01:40:57.291Z,83.97
2018-03-16T01:41:57.380Z,83.83
2018-03-16T01:42:57.470Z,83.54
2018-03-16T01:43:57.567Z,84.74
2018-03-16T01:44:57.658Z,84.92
2018-03-16T01:45:57.752Z,84.87
2018-03-16T01:46:57.844Z,84.78
2018-03-16T01:47:57.937Z,84.64
2018-03-16T01:48:58.029Z,84.68
2018-03-16T01:49:58.129Z,84.40
2018-03-16T01:50:58.217Z,84.40
2018-03-16T01:51:58.316Z,84.87
2018-03-16T01:52:58.405Z,85.06
2018-03-16T01:53:58.497Z,85.02
2018-03-16T01:54:58.584Z,85.59
2018-03-16T01:55:58.678Z,84.83
2018-03-16T01:56:58.766Z,85.11
2018-03-16T01:57:58.856Z,84.83
2018-03-16T01:58:58.948Z,85.40
2018-03-16T01:59:59.040Z,85.21
2018-03-16T02:00:59.131Z,84.92
2018-03-16T02:01:59.219Z,84.92
2018-03-16T02:02:59.311Z,84.92
2018-03-16T02:03:59.401Z,85.11
2018-03-16T02:04:59.494Z,85.11
2018-03-16T02:05:59.581Z,84.74
2018-03-16T02:06:59.679Z,85.49
2018-03-16T02:07:59.767Z,85.40
2018-03-16T02:08:59.862Z,85.30
2018-03-16T02:09:59.953Z,85.40
2018-03-16T02:11:00.044Z,85.21
2018-03-16T02:12:00.133Z,85.02
2018-03-16T02:13:00.229Z,84.74
2018-03-16T02:14:00.321Z,84.64
2018-03-16T02:15:00.414Z,84.36
2018-03-16T02:16:00.504Z,84.74
2018-03-16T02:17:00.597Z,84.45
2018-03-16T02:18:00.689Z,83.59
2018-03-16T02:19:00.778Z,83.69
2018-03-16T02:20:00.874Z,84.17
2018-03-16T02:21:00.962Z,84.55
2018-03-16T02:22:01.051Z,84.31
2018-03-16T02:23:01.131Z,85.36
2018-03-16T02:24:01.235Z,85.83
2018-03-16T02:25:01.323Z,85.64
2018-03-16T02:26:01.414Z,86.54
2018-03-16T02:27:01.504Z,86.44
2018-03-16T02:28:01.595Z,86.16
2018-03-16T02:29:01.689Z,86.16
2018-03-16T02:30:01.783Z,85.87
2018-03-16T02:31:01.871Z,85.30
2018-03-16T02:32:01.982Z,85.40
2018-03-16T02:33:02.089Z,85.45
2018-03-16T02:34:02.149Z,85.45
2018-03-16T02:35:02.267Z,85.17
2018-03-16T02:36:02.323Z,85.74
2018-03-16T02:37:02.415Z,85.78
2018-03-16T02:38:02.507Z,85.87
2018-03-16T02:39:02.599Z,85.49
2018-03-16T02:40:02.699Z,85.11
2018-03-16T02:41:02.782Z,85.11
2018-03-16T02:42:02.869Z,85.36
2018-03-16T02:43:02.961Z,85.55
2018-03-16T02:44:03.054Z,85.36
2018-03-16T02:45:03.144Z,85.26
2018-03-16T02:46:03.229Z,86.02
2018-03-16T02:47:03.321Z,85.83
2018-03-16T02:48:03.410Z,85.64
2018-03-16T02:49:03.503Z,85.64
2018-03-16T02:50:03.597Z,85.55
2018-03-16T02:51:03.689Z,85.26
2018-03-16T02:52:03.779Z,85.59
2018-03-16T02:53:03.868Z,85.17
2018-03-16T02:54:03.951Z,85.36
2018-03-16T02:55:04.037Z,84.50
2018-03-16T02:56:04.132Z,84.41
2018-03-16T02:57:04.222Z,85.17
2018-03-16T02:58:04.315Z,85.83
2018-03-16T02:59:04.409Z,86.21
2018-03-16T03:00:04.496Z,85.45
2018-03-16T03:01:04.590Z,86.11
2018-03-16T03:02:04.680Z,85.74
2018-03-16T03:03:04.774Z,86.40
2018-03-16T03:04:04.865Z,86.78
2018-03-16T03:05:04.957Z,85.93
2018-03-16T03:06:05.045Z,85.83
2018-03-16T03:07:05.140Z,85.55
2018-03-16T03:08:05.236Z,85.26
2018-03-16T03:09:05.323Z,86.21
2018-03-16T03:10:05.416Z,85.74
2018-03-16T03:11:05.506Z,85.83
2018-03-16T03:12:05.597Z,85.64
2018-03-16T03:13:05.686Z,86.11
2018-03-16T03:14:05.782Z,85.83
2018-03-16T03:15:05.871Z,86.02
2018-03-16T03:16:05.964Z,86.40
2018-03-16T03:17:06.052Z,85.74
2018-03-16T03:18:06.146Z,85.83
2018-03-16T03:19:06.257Z,85.13
2018-03-16T03:20:06.347Z,85.69
2018-03-16T03:21:06.435Z,85.78
2018-03-16T03:22:06.524Z,86.55
2018-03-16T03:23:06.615Z,87.06
2018-03-16T03:24:06.707Z,87.12
2018-03-16T03:25:06.793Z,87.02
2018-03-16T03:26:06.883Z,87.35
2018-03-16T03:27:06.974Z,86.55
2018-03-16T03:28:07.066Z,86.97
2018-03-16T03:29:07.153Z,86.97
2018-03-16T03:30:07.246Z,86.87
2018-03-16T03:31:07.337Z,86.59
2018-03-16T03:32:07.431Z,87.25
2018-03-16T03:33:07.519Z,87.06
2018-03-16T03:34:07.611Z,86.59
2018-03-16T03:35:07.704Z,86.21
2018-03-16T03:36:07.791Z,85.74
2018-03-16T03:37:07.886Z,85.93
2018-03-16T03:38:07.993Z,85.78
2018-03-16T03:39:08.081Z,85.36
2018-03-16T03:40:08.168Z,85.64
2018-03-16T03:41:08.258Z,86.02
2018-03-16T03:42:08.347Z,85.45
2018-03-16T03:43:08.439Z,85.83
2018-03-16T03:44:08.531Z,86.21
2018-03-16T03:45:08.622Z,85.55
2018-03-16T03:46:08.712Z,86.02
2018-03-16T03:47:08.800Z,85.74
2018-03-16T03:48:08.892Z,85.93
2018-03-16T03:49:08.985Z,85.83
2018-03-16T03:50:09.079Z,85.74
2018-03-16T03:51:09.169Z,85.17
2018-03-16T03:52:09.262Z,85.88
2018-03-16T03:53:09.352Z,86.07
2018-03-16T03:54:09.443Z,87.12
2018-03-16T03:55:09.532Z,87.59
2018-03-16T03:56:09.623Z,87.40
2018-03-16T03:57:09.722Z,87.97
2018-03-16T03:58:09.815Z,88.16
2018-03-16T03:59:09.901Z,88.16
2018-03-16T04:00:09.990Z,87.49
2018-03-16T04:01:10.081Z,87.30
2018-03-16T04:02:10.173Z,87.21
2018-03-16T04:03:10.267Z,86.93
2018-03-16T04:04:10.349Z,86.35
2018-03-16T04:05:10.439Z,85.97
2018-03-16T04:06:10.532Z,86.64
2018-03-16T04:07:10.619Z,86.74
2018-03-16T04:08:10.721Z,86.16
2018-03-16T04:09:10.802Z,85.78
2018-03-16T04:10:10.892Z,85.97
2018-03-16T04:11:10.988Z,86.02
2018-03-16T04:12:11.074Z,86.21
2018-03-16T04:13:11.166Z,85.69
2018-03-16T04:14:11.265Z,85.50
2018-03-16T04:15:11.354Z,85.88
2018-03-16T04:16:11.446Z,85.88
2018-03-16T04:17:11.533Z,86.02
2018-03-16T04:18:11.625Z,85.93
2018-03-16T04:19:11.714Z,85.93
2018-03-16T04:20:11.826Z,85.93
2018-03-16T04:21:11.916Z,85.17
2018-03-16T04:22:12.013Z,86.02
2018-03-16T04:23:12.110Z,85.36
2018-03-16T04:24:12.199Z,85.64
2018-03-16T04:25:12.289Z,85.93
2018-03-16T04:26:12.381Z,85.83
2018-03-16T04:27:12.470Z,85.93
2018-03-16T04:28:12.559Z,86.11
2018-03-16T04:29:12.662Z,85.74
2018-03-16T04:30:12.760Z,85.64
2018-03-16T04:31:12.856Z,85.83
2018-03-16T04:32:12.951Z,86.11
2018-03-16T04:33:13.043Z,86.40
2018-03-16T04:34:13.136Z,85.74
2018-03-16T04:35:13.227Z,86.30
2018-03-16T04:36:13.310Z,86.02
2018-03-16T04:37:13.402Z,85.07
2018-03-16T04:38:13.496Z,85.74
2018-03-16T04:39:13.588Z,85.26
2018-03-16T04:40:13.679Z,85.07
2018-03-16T04:41:13.840Z,85.26
2018-03-16T04:42:13.867Z,86.02
2018-03-16T04:43:13.954Z,85.45
2018-03-16T04:44:14.047Z,85.07
2018-03-16T04:45:14.143Z,84.98
2018-03-16T04:46:14.227Z,85.26
2018-03-16T04:47:14.320Z,85.36
2018-03-16T04:48:14.412Z,86.11
2018-03-16T04:49:14.500Z,85.26
2018-03-16T04:50:14.588Z,85.74
2018-03-16T04:51:14.681Z,85.17
2018-03-16T04:52:14.774Z,85.22
2018-03-16T04:53:14.860Z,85.41
2018-03-16T04:54:14.950Z,85.93
2018-03-16T04:55:15.040Z,85.41
2018-03-16T04:56:15.136Z,85.60
2018-03-16T04:57:15.285Z,85.41
2018-03-16T04:58:15.321Z,85.03
2018-03-16T04:59:15.415Z,84.94
2018-03-16T05:00:15.505Z,85.60
2018-03-16T05:01:15.613Z,85.41
2018-03-16T05:02:15.705Z,85.97
2018-03-16T05:03:15.817Z,86.07
2018-03-16T05:04:15.885Z,85.13
2018-03-16T05:05:15.979Z,85.69
2018-03-16T05:06:16.073Z,85.31
2018-03-16T05:07:16.162Z,85.22
2018-03-16T05:08:16.252Z,85.69
2018-03-16T05:09:16.345Z,85.50
2018-03-16T05:10:16.433Z,85.69
2018-03-16T05:11:16.520Z,85.41
2018-03-16T05:12:16.657Z,85.41
2018-03-16T05:13:16.708Z,85.78
2018-03-16T05:14:16.795Z,84.94
2018-03-16T05:15:16.886Z,85.60
2018-03-16T05:16:16.980Z,85.60
2018-03-16T05:17:17.068Z,85.60
2018-03-16T05:18:17.164Z,85.97
2018-03-16T05:19:17.252Z,85.88
2018-03-16T05:20:17.345Z,85.22
2018-03-16T05:21:17.436Z,85.97
2018-03-16T05:22:17.528Z,85.36
2018-03-16T05:23:17.618Z,85.60
2018-03-16T05:24:17.710Z,85.13
2018-03-16T05:25:17.804Z,86.02
2018-03-16T05:26:17.896Z,85.78
2018-03-16T05:27:17.979Z,84.74
2018-03-16T05:28:18.072Z,84.94
2018-03-16T05:29:18.161Z,85.31
2018-03-16T05:30:18.252Z,85.50
2018-03-16T05:31:18.344Z,85.13
2018-03-16T05:32:18.437Z,85.50
2018-03-16T05:33:18.559Z,85.88
2018-03-16T05:34:18.646Z,85.03
2018-03-16T05:35:18.735Z,85.50
2018-03-16T05:36:18.830Z,85.97
2018-03-16T05:37:18.918Z,85.78
2018-03-16T05:38:19.013Z,85.78
2018-03-16T05:39:19.099Z,85.88
2018-03-16T05:40:19.188Z,85.88
2018-03-16T05:41:19.285Z,85.69
2018-03-16T05:42:19.376Z,86.16
2018-03-16T05:43:19.472Z,85.78
2018-03-16T05:44:19.570Z,86.07
2018-03-16T05:45:19.663Z,85.78
2018-03-16T05:46:19.764Z,85.78
2018-03-16T05:47:19.847Z,85.97
2018-03-16T05:48:19.940Z,85.97
2018-03-16T05:49:20.033Z,85.97
2018-03-16T05:50:20.119Z,85.78
2018-03-16T05:51:20.213Z,85.88
2018-03-16T05:52:20.305Z,85.88
2018-03-16T05:53:20.394Z,86.16
2018-03-16T05:54:20.482Z,86.07
2018-03-16T05:55:20.574Z,85.69
2018-03-16T05:56:20.666Z,85.78
2018-03-16T05:57:20.758Z,86.07
2018-03-16T05:58:20.848Z,86.55
2018-03-16T05:59:20.943Z,86.55
2018-03-16T06:00:21.034Z,85.78
2018-03-16T06:01:21.123Z,85.69
2018-03-16T06:02:21.205Z,85.88
2018-03-16T06:03:21.298Z,86.07
2018-03-16T06:04:21.387Z,85.78
2018-03-16T06:05:21.498Z,85.69
2018-03-16T06:06:21.592Z,85.41
2018-03-16T06:07:21.695Z,85.31
2018-03-16T06:08:21.798Z,85.60
2018-03-16T06:09:21.911Z,85.50
2018-03-16T06:10:22.007Z,85.50
2018-03-16T06:11:22.095Z,85.74
2018-03-16T06:12:22.212Z,85.31
2018-03-16T06:13:22.302Z,85.13
2018-03-16T06:14:22.393Z,85.60
2018-03-16T06:15:22.483Z,85.60
2018-03-16T06:16:22.576Z,85.41
2018-03-16T06:17:22.668Z,85.26
2018-03-16T06:18:22.761Z,85.31
2018-03-16T06:19:22.857Z,85.78
2018-03-16T06:20:22.951Z,85.13
2018-03-16T06:21:23.033Z,85.41
2018-03-16T06:22:23.123Z,85.50
2018-03-16T06:23:23.212Z,85.93
2018-03-16T06:24:23.306Z,85.03
2018-03-16T06:25:23.399Z,85.50
2018-03-16T06:26:23.494Z,85.88
2018-03-16T06:27:23.582Z,85.64
2018-03-16T06:28:23.678Z,85.17
2018-03-16T06:29:23.770Z,85.26
2018-03-16T06:30:23.866Z,85.36
2018-03-16T06:31:23.957Z,85.45
2018-03-16T06:32:24.076Z,85.36
2018-03-16T06:33:24.139Z,85.64
2018-03-16T06:34:24.231Z,85.55
2018-03-16T06:35:24.322Z,85.36
2018-03-16T06:36:24.421Z,85.17
2018-03-16T06:37:24.506Z,85.45
2018-03-16T06:38:24.601Z,85.45
2018-03-16T06:39:24.705Z,85.93
2018-03-16T06:40:24.787Z,85.36
2018-03-16T06:41:24.879Z,85.83
2018-03-16T06:42:24.974Z,85.55
2018-03-16T06:43:25.065Z,85.36
2018-03-16T06:44:25.163Z,85.07
2018-03-16T06:45:25.259Z,85.26
2018-03-16T06:46:25.356Z,85.26
2018-03-16T06:47:25.449Z,85.55
2018-03-16T06:48:25.535Z,85.03
2018-03-16T06:49:25.632Z,85.31
2018-03-16T06:50:25.727Z,85.45
2018-03-16T06:51:25.806Z,85.64
2018-03-16T06:52:25.903Z,85.26
2018-03-16T06:53:25.995Z,85.36
2018-03-16T06:54:26.084Z,85.41
2018-03-16T06:55:26.176Z,85.60
2018-03-16T06:56:26.266Z,85.31
2018-03-16T06:57:26.370Z,85.31
2018-03-16T06:58:26.461Z,85.41
2018-03-16T06:59:26.555Z,85.17
2018-03-16T07:00:26.643Z,85.50
2018-03-16T07:01:26.731Z,85.07
2018-03-16T07:02:26.825Z,84.98
2018-03-16T07:03:26.911Z,84.88
2018-03-16T07:04:26.998Z,85.13
2018-03-16T07:05:27.090Z,85.50
2018-03-16T07:06:27.182Z,85.03
2018-03-16T07:07:27.273Z,85.31
2018-03-16T07:08:27.372Z,85.03
2018-03-16T07:09:27.463Z,84.84
2018-03-16T07:10:27.553Z,84.65
2018-03-16T07:11:27.645Z,84.55
2018-03-16T07:12:27.738Z,84.36
2018-03-16T07:13:27.836Z,84.46
2018-03-16T07:14:27.926Z,84.69
2018-03-16T07:15:28.021Z,84.36
2018-03-16T07:16:28.111Z,84.36
2018-03-16T07:17:28.204Z,84.84
2018-03-16T07:18:28.290Z,84.36
2018-03-16T07:19:28.381Z,84.94
2018-03-16T07:20:28.474Z,85.03
2018-03-16T07:21:28.566Z,85.13
2018-03-16T07:22:28.673Z,84.55
2018-03-16T07:23:28.747Z,85.41
2018-03-16T07:24:28.840Z,85.13
2018-03-16T07:25:28.928Z,85.69
2018-03-16T07:26:29.014Z,85.41
2018-03-16T07:27:29.105Z,85.50
2018-03-16T07:28:29.214Z,85.31
2018-03-16T07:29:29.326Z,85.41
2018-03-16T07:30:29.418Z,85.03
2018-03-16T07:31:29.512Z,84.65
2018-03-16T07:32:29.604Z,85.03
2018-03-16T07:33:29.695Z,84.94
2018-03-16T07:34:29.790Z,84.84
2018-03-16T07:35:29.880Z,84.94
2018-03-16T07:36:29.985Z,85.41
2018-03-16T07:37:30.051Z,85.50
2018-03-16T07:38:30.141Z,85.50
2018-03-16T07:39:30.235Z,85.50
2018-03-16T07:40:30.326Z,85.50
2018-03-16T07:41:30.416Z,85.50
2018-03-16T07:42:30.531Z,85.31
2018-03-16T07:43:30.627Z,85.64
2018-03-16T07:44:30.724Z,85.55
2018-03-16T07:45:30.817Z,85.26
2018-03-16T07:46:30.909Z,84.88
2018-03-16T07:47:31.001Z,84.98
2018-03-16T07:48:31.094Z,85.55
2018-03-16T07:49:31.181Z,85.26
2018-03-16T07:50:31.276Z,85.26
2018-03-16T07:51:31.374Z,85.26
2018-03-16T07:52:31.462Z,85.55
2018-03-16T07:53:31.556Z,84.69
2018-03-16T07:54:31.646Z,84.69
2018-03-16T07:55:31.757Z,84.59
2018-03-16T07:56:31.849Z,84.31
2018-03-16T07:57:31.937Z,84.22
2018-03-16T07:58:32.030Z,84.41
2018-03-16T07:59:32.123Z,84.03
2018-03-16T08:00:32.211Z,84.03
2018-03-16T08:01:32.301Z,84.12
2018-03-16T08:02:32.389Z,84.22
2018-03-16T08:03:32.481Z,83.74
2018-03-16T08:04:32.573Z,84.31
2018-03-16T08:05:32.664Z,84.31
2018-03-16T08:06:32.752Z,84.03
2018-03-16T08:07:32.850Z,83.84
2018-03-16T08:08:32.941Z,84.41
2018-03-16T08:09:33.031Z,84.22
2018-03-16T08:10:33.127Z,83.84
2018-03-16T08:11:33.219Z,83.55
2018-03-16T08:12:33.306Z,84.22
2018-03-16T08:13:33.406Z,83.97
2018-03-16T08:14:33.497Z,83.69
2018-03-16T08:15:33.589Z,84.17
2018-03-16T08:16:33.682Z,84.07
2018-03-16T08:17:33.774Z,83.78
2018-03-16T08:18:33.868Z,84.36
2018-03-16T08:19:33.962Z,84.17
2018-03-16T08:20:34.051Z,84.26
2018-03-16T08:21:34.145Z,83.88
2018-03-16T08:22:34.237Z,83.59
2018-03-16T08:23:34.335Z,83.88
2018-03-16T08:24:34.437Z,83.88
2018-03-16T08:25:34.526Z,83.97
2018-03-16T08:26:34.618Z,82.93
2018-03-16T08:27:34.717Z,82.74
2018-03-16T08:28:34.810Z,82.74
2018-03-16T08:29:34.904Z,82.17
2018-03-16T08:30:34.996Z,82.17
2018-03-16T08:31:35.088Z,82.93
2018-03-16T08:32:35.184Z,82.84
2018-03-16T08:33:35.284Z,82.27
2018-03-16T08:34:35.377Z,82.46
2018-03-16T08:35:35.472Z,81.88
2018-03-16T08:36:35.564Z,81.98
2018-03-16T08:37:35.663Z,81.60
2018-03-16T08:38:35.757Z,82.08
2018-03-16T08:39:35.852Z,82.46
2018-03-16T08:40:35.948Z,82.55
2018-03-16T08:41:36.040Z,81.88
2018-03-16T08:42:36.133Z,82.17
2018-03-16T08:43:36.229Z,81.98
2018-03-16T08:44:36.322Z,82.36
2018-03-16T08:45:36.427Z,82.40
2018-03-16T08:46:36.524Z,82.46
2018-03-16T08:47:36.628Z,81.74
2018-03-16T08:48:36.722Z,82.40
2018-03-16T08:49:36.817Z,82.50
2018-03-16T08:50:36.910Z,82.31
2018-03-16T08:51:37.007Z,82.78
2018-03-16T08:52:37.105Z,82.12
2018-03-16T08:53:37.201Z,82.40
2018-03-16T08:54:37.279Z,81.55
2018-03-16T08:55:37.372Z,81.55
2018-03-16T08:56:37.463Z,81.55
2018-03-16T08:57:37.554Z,81.65
2018-03-16T08:58:37.646Z,82.03
2018-03-16T08:59:37.740Z,82.12
2018-03-16T09:00:37.853Z,82.40
2018-03-16T09:01:37.943Z,82.59
2018-03-16T09:02:38.038Z,82.12
2018-03-16T09:03:38.136Z,82.40
2018-03-16T09:04:38.227Z,81.84
2018-03-16T09:05:38.322Z,81.55
2018-03-16T09:06:38.415Z,81.84
2018-03-16T09:07:38.514Z,81.32
2018-03-16T09:08:38.604Z,80.84
2018-03-16T09:09:38.700Z,81.04
2018-03-16T09:10:38.794Z,81.65
2018-03-16T09:11:38.884Z,81.84
2018-03-16T09:12:38.999Z,81.79
2018-03-16T09:13:39.086Z,82.36
2018-03-16T09:14:39.176Z,81.93
2018-03-16T09:15:39.263Z,82.36
2018-03-16T09:16:39.354Z,82.40
2018-03-16T09:17:39.446Z,82.21
2018-03-16T09:18:39.537Z,81.70
2018-03-16T09:19:39.640Z,81.41
2018-03-16T09:20:39.723Z,81.88
2018-03-16T09:21:39.821Z,82.46
2018-03-16T09:22:39.918Z,82.55
2018-03-16T09:23:40.009Z,83.03
2018-03-16T09:24:40.100Z,83.03
2018-03-16T09:25:40.194Z,83.59
2018-03-16T09:26:40.288Z,83.97
2018-03-16T09:27:40.384Z,83.59
2018-03-16T09:28:40.461Z,83.88
2018-03-16T09:29:40.598Z,82.08
2018-03-16T09:30:40.644Z,81.88
2018-03-16T09:31:40.734Z,81.88
2018-03-16T09:32:40.824Z,81.41
2018-03-16T09:33:40.916Z,82.74
2018-03-16T09:34:41.010Z,82.46
2018-03-16T09:35:41.096Z,83.50
2018-03-16T09:36:41.187Z,83.59
2018-03-16T09:37:41.285Z,83.78
2018-03-16T09:38:41.376Z,82.89
2018-03-16T09:39:41.468Z,82.74
2018-03-16T09:40:41.558Z,83.12
2018-03-16T09:41:41.650Z,83.50
2018-03-16T09:42:41.746Z,83.50
2018-03-16T09:43:41.840Z,83.50
2018-03-16T09:44:41.934Z,83.88
2018-03-16T09:45:42.029Z,83.97
2018-03-16T09:46:42.117Z,83.88
2018-03-16T09:47:42.207Z,82.84
2018-03-16T09:48:42.298Z,83.69
2018-03-16T09:49:42.388Z,84.07
2018-03-16T09:50:42.483Z,83.40
2018-03-16T09:51:42.572Z,83.50
2018-03-16T09:52:42.657Z,83.97
2018-03-16T09:53:42.747Z,83.31
2018-03-16T09:54:42.843Z,82.93
2018-03-16T09:55:42.940Z,82.93
2018-03-16T09:56:43.031Z,82.84
2018-03-16T09:57:43.124Z,82.04
2018-03-16T09:58:43.234Z,83.55
2018-03-16T09:59:43.327Z,84.12
2018-03-16T10:00:43.421Z,84.41
2018-03-16T10:01:43.514Z,84.50
2018-03-16T10:02:43.613Z,85.07
2018-03-16T10:03:43.702Z,85.55
2018-03-16T10:04:43.795Z,85.74
2018-03-16T10:05:43.883Z,85.55
2018-03-16T10:06:43.986Z,85.40
2018-03-16T10:07:44.078Z,85.83
2018-03-16T10:08:44.164Z,85.17
2018-03-16T10:09:44.257Z,85.17
2018-03-16T10:10:44.352Z,84.69
2018-03-16T10:11:44.455Z,84.83
2018-03-16T10:12:44.549Z,85.02
2018-03-16T10:13:44.636Z,85.21
2018-03-16T10:14:44.730Z,84.74
2018-03-16T10:15:44.833Z,83.65
2018-03-16T10:16:44.923Z,83.27
2018-03-16T10:17:45.062Z,84.36
2018-03-16T10:18:45.110Z,84.74
2018-03-16T10:19:45.202Z,84.55
2018-03-16T10:20:45.302Z,84.17
2018-03-16T10:21:45.391Z,84.92
2018-03-16T10:22:45.487Z,84.55
2018-03-16T10:23:45.582Z,83.59
2018-03-16T10:24:45.677Z,83.50
2018-03-16T10:25:45.772Z,84.07
2018-03-16T10:26:45.859Z,84.83
2018-03-16T10:27:45.951Z,84.55
2018-03-16T10:28:46.048Z,83.69
2018-03-16T10:29:46.146Z,83.55
2018-03-16T10:30:46.236Z,83.97
2018-03-16T10:31:46.322Z,84.45
2018-03-16T10:32:46.413Z,84.26
2018-03-16T10:33:46.507Z,84.17
2018-03-16T10:34:46.605Z,83.59
2018-03-16T10:35:46.707Z,83.65
2018-03-16T10:36:46.791Z,84.12
2018-03-16T10:37:46.901Z,84.22
2018-03-16T10:38:46.991Z,84.12
2018-03-16T10:39:47.085Z,84.22
2018-03-16T10:40:47.180Z,84.26
2018-03-16T10:41:47.275Z,84.36
2018-03-16T10:42:47.430Z,84.36
2018-03-16T10:43:47.446Z,84.26
2018-03-16T10:44:47.563Z,84.36
2018-03-16T10:45:47.671Z,84.26
2018-03-16T10:46:47.753Z,84.74
2018-03-16T10:47:47.850Z,84.17
2018-03-16T10:48:47.975Z,83.50
2018-03-16T10:49:48.040Z,83.03
2018-03-16T10:50:48.130Z,83.59
2018-03-16T10:51:48.227Z,83.69
2018-03-16T10:52:48.318Z,83.22
2018-03-16T10:53:48.410Z,83.40
2018-03-16T10:54:48.503Z,83.40
2018-03-16T10:55:48.598Z,83.69
2018-03-16T10:56:48.692Z,83.03
2018-03-16T10:57:48.788Z,82.74
2018-03-16T10:58:48.879Z,83.59
2018-03-16T10:59:48.978Z,83.64
2018-03-16T11:00:49.072Z,82.36
2018-03-16T11:01:49.164Z,81.70
2018-03-16T11:02:49.257Z,82.17
2018-03-16T11:03:49.348Z,81.51
2018-03-16T11:04:49.455Z,81.88
2018-03-16T11:05:49.548Z,82.84
2018-03-16T11:06:49.642Z,83.22
2018-03-16T11:07:49.737Z,83.59
2018-03-16T11:08:49.832Z,84.17
2018-03-16T11:09:49.929Z,84.83
2018-03-16T11:10:50.023Z,84.36
2018-03-16T11:11:50.115Z,84.07
2018-03-16T11:12:50.203Z,82.65
2018-03-16T11:13:50.300Z,82.17
2018-03-16T11:14:50.392Z,82.46
2018-03-16T11:15:50.483Z,82.27
2018-03-16T11:16:50.580Z,82.55
2018-03-16T11:17:50.672Z,83.59
2018-03-16T11:18:50.766Z,83.69
2018-03-16T11:19:50.863Z,83.69
2018-03-16T11:20:50.950Z,83.97
2018-03-16T11:21:51.049Z,83.97
2018-03-16T11:22:51.142Z,83.03
2018-03-16T11:23:51.232Z,83.03
2018-03-16T11:24:51.332Z,82.84
2018-03-16T11:25:51.420Z,82.17
2018-03-16T11:26:51.522Z,81.60
2018-03-16T11:27:51.615Z,82.27
2018-03-16T11:28:51.713Z,81.70
2018-03-16T11:29:51.804Z,81.88
2018-03-16T11:30:51.900Z,82.93
2018-03-16T11:31:51.999Z,82.17
2018-03-16T11:32:52.092Z,82.46
2018-03-16T11:33:52.182Z,82.84
2018-03-16T11:34:52.279Z,82.46
2018-03-16T11:35:52.371Z,82.17
2018-03-16T11:36:52.469Z,82.17
2018-03-16T11:37:52.574Z,83.12
2018-03-16T11:38:52.648Z,83.69
2018-03-16T11:39:52.738Z,83.69
2018-03-16T11:40:52.828Z,82.65
2018-03-16T11:41:52.924Z,82.36
2018-03-16T11:42:53.014Z,81.70
2018-03-16T11:43:53.111Z,82.46
2018-03-16T11:44:53.208Z,83.12
2018-03-16T11:45:53.301Z,82.74
2018-03-16T11:46:53.390Z,83.65
2018-03-16T11:47:53.484Z,84.22
2018-03-16T11:48:53.577Z,85.26
2018-03-16T11:49:53.660Z,85.93
2018-03-16T11:50:53.750Z,85.55
2018-03-16T11:51:53.842Z,87.25
2018-03-16T11:52:53.935Z,86.21
2018-03-16T11:53:54.028Z,85.36
2018-03-16T11:54:54.123Z,84.59
2018-03-16T11:55:54.234Z,85.26
2018-03-16T11:56:54.338Z,85.26
2018-03-16T11:57:54.423Z,85.21
2018-03-16T11:58:54.553Z,85.36
2018-03-16T11:59:54.613Z,85.59
2018-03-16T12:00:54.708Z,85.49
2018-03-16T12:01:54.802Z,86.44
2018-03-16T12:02:54.884Z,86.35
2018-03-16T12:03:54.981Z,85.97
2018-03-16T12:04:55.069Z,83.97
2018-03-16T12:05:55.175Z,83.97
2018-03-16T12:06:55.270Z,84.83
2018-03-16T12:07:55.372Z,85.30
2018-03-16T12:08:55.471Z,85.02
2018-03-16T12:09:55.556Z,83.88
2018-03-16T12:10:55.664Z,83.88
2018-03-16T12:11:55.756Z,83.55
2018-03-16T12:12:55.848Z,83.65
2018-03-16T12:13:55.939Z,84.59
2018-03-16T12:14:56.034Z,85.07
2018-03-16T12:15:56.133Z,85.26
2018-03-16T12:16:56.227Z,86.49
2018-03-16T12:17:56.319Z,85.55
2018-03-16T12:18:56.409Z,85.55
2018-03-16T12:19:56.494Z,85.83
2018-03-16T12:20:56.587Z,86.02
2018-03-16T12:21:56.685Z,85.93
2018-03-16T12:22:56.785Z,86.49
2018-03-16T12:23:56.875Z,85.26
2018-03-16T12:24:56.966Z,85.59
2018-03-16T12:25:57.066Z,86.54
2018-03-16T12:26:57.153Z,85.97
2018-03-16T12:27:57.250Z,85.78
2018-03-16T12:28:57.340Z,85.21
2018-03-16T12:29:57.431Z,85.21
2018-03-16T12:30:57.543Z,83.31
2018-03-16T12:31:57.618Z,82.65
2018-03-16T12:32:57.718Z,83.22
2018-03-16T12:33:57.816Z,84.36
2018-03-16T12:34:57.912Z,82.74
2018-03-16T12:35:57.996Z,82.93
2018-03-16T12:36:58.074Z,83.03
2018-03-16T12:37:58.172Z,83.50
2018-03-16T12:38:58.275Z,83.88
2018-03-16T12:39:58.364Z,84.26
2018-03-16T12:40:58.442Z,84.17
2018-03-16T12:41:58.532Z,84.07
2018-03-16T12:42:58.624Z,83.22
2018-03-16T12:43:58.692Z,81.88
2018-03-16T12:44:58.784Z,82.36
2018-03-16T12:45:58.882Z,82.93
2018-03-16T12:46:58.958Z,83.59
2018-03-16T12:47:59.048Z,83.12
2018-03-16T12:48:59.156Z,82.55
2018-03-16T12:49:59.215Z,82.55
2018-03-16T12:50:59.322Z,83.40
2018-03-16T12:51:59.396Z,83.59
2018-03-16T12:52:59.477Z,84.07
2018-03-16T12:53:59.570Z,84.92